sensor_id;sensor_type;location;lat;lon;timestamp;P1;durP1;ratioP1;P2;durP2;ratioP2
58208;SDS011;44006;52.028;4.696;2023-12-14T00:01:31;33.67;;;19.83;;
58208;SDS011;44006;52.028;4.696;2023-12-14T00:03:56;31.57;;;19.43;;
58208;SDS011;44006;52.028;4.696;2023-12-14T00:06:21;30.85;;;19.55;;
58208;SDS011;44006;52.028;4.696;2023-12-14T00:08:46;30.70;;;19.17;;
58208;SDS011;44006;52.028;4.696;2023-12-14T00:11:12;30.92;;;20.70;;
58208;SDS011;44006;52.028;4.696;2023-12-14T00:13:37;31.30;;;19.50;;
58208;SDS011;44006;52.028;4.696;2023-12-14T00:16:03;29.05;;;18.85;;
58208;SDS011;44006;52.028;4.696;2023-12-14T00:18:28;28.33;;;18.83;;
58208;SDS011;44006;52.028;4.696;2023-12-14T00:20:53;30.52;;;18.70;;
58208;SDS011;44006;52.028;4.696;2023-12-14T00:23:19;29.17;;;19.00;;
58208;SDS011;44006;52.028;4.696;2023-12-14T00:25:44;28.10;;;17.48;;
58208;SDS011;44006;52.028;4.696;2023-12-14T00:28:09;29.40;;;18.30;;
58208;SDS011;44006;52.028;4.696;2023-12-14T00:30:35;27.83;;;18.03;;
58208;SDS011;44006;52.028;4.696;2023-12-14T00:33:00;25.85;;;17.15;;
58208;SDS011;44006;52.028;4.696;2023-12-14T00:35:25;26.38;;;17.48;;
58208;SDS011;44006;52.028;4.696;2023-12-14T00:37:50;28.45;;;17.42;;
58208;SDS011;44006;52.028;4.696;2023-12-14T00:40:22;27.98;;;17.48;;
58208;SDS011;44006;52.028;4.696;2023-12-14T00:42:47;28.13;;;16.65;;
58208;SDS011;44006;52.028;4.696;2023-12-14T00:45:18;27.83;;;16.45;;
58208;SDS011;44006;52.028;4.696;2023-12-14T00:47:44;25.83;;;16.83;;
58208;SDS011;44006;52.028;4.696;2023-12-14T00:50:09;29.10;;;16.67;;
58208;SDS011;44006;52.028;4.696;2023-12-14T00:52:37;27.48;;;15.77;;
58208;SDS011;44006;52.028;4.696;2023-12-14T00:55:02;27.33;;;16.45;;
58208;SDS011;44006;52.028;4.696;2023-12-14T00:57:28;25.50;;;16.02;;
58208;SDS011;44006;52.028;4.696;2023-12-14T00:59:53;27.00;;;16.37;;
58208;SDS011;44006;52.028;4.696;2023-12-14T01:02:19;28.27;;;17.55;;
58208;SDS011;44006;52.028;4.696;2023-12-14T01:04:44;27.33;;;16.73;;
58208;SDS011;44006;52.028;4.696;2023-12-14T01:07:09;28.38;;;16.67;;
58208;SDS011;44006;52.028;4.696;2023-12-14T01:09:34;25.13;;;16.07;;
58208;SDS011;44006;52.028;4.696;2023-12-14T01:12:00;27.08;;;16.27;;
58208;SDS011;44006;52.028;4.696;2023-12-14T01:14:26;23.65;;;15.93;;
58208;SDS011;44006;52.028;4.696;2023-12-14T01:16:51;27.00;;;16.42;;
58208;SDS011;44006;52.028;4.696;2023-12-14T01:19:16;25.85;;;15.98;;
58208;SDS011;44006;52.028;4.696;2023-12-14T01:21:42;26.75;;;16.55;;
58208;SDS011;44006;52.028;4.696;2023-12-14T01:24:07;26.95;;;16.98;;
58208;SDS011;44006;52.028;4.696;2023-12-14T01:26:33;26.73;;;16.27;;
58208;SDS011;44006;52.028;4.696;2023-12-14T01:28:58;26.87;;;16.10;;
58208;SDS011;44006;52.028;4.696;2023-12-14T01:31:24;27.05;;;16.67;;
58208;SDS011;44006;52.028;4.696;2023-12-14T01:33:49;29.38;;;17.33;;
58208;SDS011;44006;52.028;4.696;2023-12-14T01:36:24;30.02;;;16.90;;
58208;SDS011;44006;52.028;4.696;2023-12-14T01:38:50;28.35;;;17.17;;
58208;SDS011;44006;52.028;4.696;2023-12-14T01:41:15;30.95;;;17.80;;
58208;SDS011;44006;52.028;4.696;2023-12-14T01:43:41;25.77;;;16.50;;
58208;SDS011;44006;52.028;4.696;2023-12-14T01:46:06;25.57;;;16.43;;
58208;SDS011;44006;52.028;4.696;2023-12-14T01:48:31;28.90;;;17.23;;
58208;SDS011;44006;52.028;4.696;2023-12-14T01:50:56;29.55;;;17.52;;
58208;SDS011;44006;52.028;4.696;2023-12-14T01:53:22;33.42;;;17.38;;
58208;SDS011;44006;52.028;4.696;2023-12-14T01:55:47;31.60;;;17.33;;
58208;SDS011;44006;52.028;4.696;2023-12-14T01:58:12;31.90;;;19.10;;
58208;SDS011;44006;52.028;4.696;2023-12-14T02:00:46;33.30;;;19.00;;
58208;SDS011;44006;52.028;4.696;2023-12-14T02:03:13;31.63;;;18.65;;
58208;SDS011;44006;52.028;4.696;2023-12-14T02:05:39;35.03;;;19.75;;
58208;SDS011;44006;52.028;4.696;2023-12-14T02:08:04;39.47;;;19.20;;
58208;SDS011;44006;52.028;4.696;2023-12-14T02:10:29;31.92;;;18.88;;
58208;SDS011;44006;52.028;4.696;2023-12-14T02:12:54;33.00;;;19.63;;
58208;SDS011;44006;52.028;4.696;2023-12-14T02:15:20;34.50;;;19.33;;
58208;SDS011;44006;52.028;4.696;2023-12-14T02:17:45;33.72;;;20.80;;
58208;SDS011;44006;52.028;4.696;2023-12-14T02:20:10;38.80;;;20.15;;
58208;SDS011;44006;52.028;4.696;2023-12-14T02:22:47;35.80;;;20.50;;
58208;SDS011;44006;52.028;4.696;2023-12-14T02:25:14;38.58;;;19.77;;
58208;SDS011;44006;52.028;4.696;2023-12-14T02:27:39;36.70;;;20.17;;
58208;SDS011;44006;52.028;4.696;2023-12-14T02:30:04;33.57;;;19.83;;
58208;SDS011;44006;52.028;4.696;2023-12-14T02:32:30;35.17;;;19.70;;
58208;SDS011;44006;52.028;4.696;2023-12-14T02:34:55;35.13;;;19.53;;
58208;SDS011;44006;52.028;4.696;2023-12-14T02:37:20;32.87;;;19.33;;
58208;SDS011;44006;52.028;4.696;2023-12-14T02:39:45;35.55;;;19.65;;
58208;SDS011;44006;52.028;4.696;2023-12-14T02:42:12;35.33;;;19.35;;
58208;SDS011;44006;52.028;4.696;2023-12-14T02:44:37;34.03;;;19.60;;
58208;SDS011;44006;52.028;4.696;2023-12-14T02:47:02;33.13;;;19.73;;
58208;SDS011;44006;52.028;4.696;2023-12-14T02:49:28;35.22;;;20.20;;
58208;SDS011;44006;52.028;4.696;2023-12-14T02:51:53;32.58;;;18.08;;
58208;SDS011;44006;52.028;4.696;2023-12-14T02:54:18;33.93;;;18.17;;
58208;SDS011;44006;52.028;4.696;2023-12-14T02:56:43;33.40;;;18.77;;
58208;SDS011;44006;52.028;4.696;2023-12-14T02:59:08;36.63;;;18.45;;
58208;SDS011;44006;52.028;4.696;2023-12-14T03:01:34;34.53;;;18.17;;
58208;SDS011;44006;52.028;4.696;2023-12-14T03:03:59;39.33;;;19.80;;
58208;SDS011;44006;52.028;4.696;2023-12-14T03:06:24;36.75;;;19.65;;
58208;SDS011;44006;52.028;4.696;2023-12-14T03:08:49;37.10;;;18.33;;
58208;SDS011;44006;52.028;4.696;2023-12-14T03:11:21;38.78;;;19.17;;
58208;SDS011;44006;52.028;4.696;2023-12-14T03:13:47;38.92;;;19.65;;
58208;SDS011;44006;52.028;4.696;2023-12-14T03:16:13;37.63;;;20.05;;
58208;SDS011;44006;52.028;4.696;2023-12-14T03:18:39;36.10;;;19.40;;
58208;SDS011;44006;52.028;4.696;2023-12-14T03:21:04;32.80;;;19.23;;
58208;SDS011;44006;52.028;4.696;2023-12-14T03:23:29;39.20;;;19.63;;
58208;SDS011;44006;52.028;4.696;2023-12-14T03:25:57;37.65;;;18.80;;
58208;SDS011;44006;52.028;4.696;2023-12-14T03:28:22;35.53;;;18.80;;
58208;SDS011;44006;52.028;4.696;2023-12-14T03:30:47;34.85;;;19.90;;
58208;SDS011;44006;52.028;4.696;2023-12-14T03:33:13;36.72;;;20.60;;
58208;SDS011;44006;52.028;4.696;2023-12-14T03:35:38;37.45;;;20.52;;
58208;SDS011;44006;52.028;4.696;2023-12-14T03:38:06;36.47;;;20.77;;
58208;SDS011;44006;52.028;4.696;2023-12-14T03:40:32;32.75;;;18.55;;
58208;SDS011;44006;52.028;4.696;2023-12-14T03:42:57;35.67;;;19.58;;
58208;SDS011;44006;52.028;4.696;2023-12-14T03:45:22;33.53;;;19.35;;
58208;SDS011;44006;52.028;4.696;2023-12-14T03:47:48;34.40;;;18.40;;
58208;SDS011;44006;52.028;4.696;2023-12-14T03:50:13;33.70;;;18.00;;
58208;SDS011;44006;52.028;4.696;2023-12-14T03:52:38;36.25;;;19.48;;
58208;SDS011;44006;52.028;4.696;2023-12-14T03:55:03;33.50;;;18.03;;
58208;SDS011;44006;52.028;4.696;2023-12-14T03:57:29;32.53;;;16.27;;
58208;SDS011;44006;52.028;4.696;2023-12-14T03:59:54;32.30;;;16.63;;
58208;SDS011;44006;52.028;4.696;2023-12-14T04:02:20;26.60;;;15.95;;
58208;SDS011;44006;52.028;4.696;2023-12-14T04:04:45;27.70;;;15.65;;
58208;SDS011;44006;52.028;4.696;2023-12-14T04:07:12;23.42;;;13.43;;
58208;SDS011;44006;52.028;4.696;2023-12-14T04:09:37;24.83;;;13.27;;
58208;SDS011;44006;52.028;4.696;2023-12-14T04:12:02;23.63;;;12.70;;
58208;SDS011;44006;52.028;4.696;2023-12-14T04:14:28;20.33;;;11.90;;
58208;SDS011;44006;52.028;4.696;2023-12-14T04:16:54;23.77;;;11.80;;
58208;SDS011;44006;52.028;4.696;2023-12-14T04:19:19;24.58;;;12.38;;
58208;SDS011;44006;52.028;4.696;2023-12-14T04:21:45;20.00;;;11.50;;
58208;SDS011;44006;52.028;4.696;2023-12-14T04:24:11;20.90;;;11.20;;
58208;SDS011;44006;52.028;4.696;2023-12-14T04:26:37;22.13;;;11.07;;
58208;SDS011;44006;52.028;4.696;2023-12-14T04:29:02;20.23;;;10.90;;
58208;SDS011;44006;52.028;4.696;2023-12-14T04:31:28;21.73;;;10.95;;
58208;SDS011;44006;52.028;4.696;2023-12-14T04:33:54;20.90;;;11.38;;
58208;SDS011;44006;52.028;4.696;2023-12-14T04:36:19;24.40;;;11.15;;
58208;SDS011;44006;52.028;4.696;2023-12-14T04:38:44;21.17;;;11.40;;
58208;SDS011;44006;52.028;4.696;2023-12-14T04:41:11;22.15;;;10.63;;
58208;SDS011;44006;52.028;4.696;2023-12-14T04:43:36;21.05;;;10.70;;
58208;SDS011;44006;52.028;4.696;2023-12-14T04:46:02;19.30;;;10.55;;
58208;SDS011;44006;52.028;4.696;2023-12-14T04:48:27;19.00;;;10.18;;
58208;SDS011;44006;52.028;4.696;2023-12-14T04:50:52;19.38;;;9.70;;
58208;SDS011;44006;52.028;4.696;2023-12-14T04:53:18;15.63;;;9.73;;
58208;SDS011;44006;52.028;4.696;2023-12-14T04:55:43;15.52;;;9.57;;
58208;SDS011;44006;52.028;4.696;2023-12-14T04:58:08;18.17;;;10.05;;
58208;SDS011;44006;52.028;4.696;2023-12-14T05:00:33;15.00;;;9.37;;
58208;SDS011;44006;52.028;4.696;2023-12-14T05:02:59;20.05;;;9.65;;
58208;SDS011;44006;52.028;4.696;2023-12-14T05:05:24;15.85;;;9.18;;
58208;SDS011;44006;52.028;4.696;2023-12-14T05:07:49;14.52;;;8.85;;
58208;SDS011;44006;52.028;4.696;2023-12-14T05:10:14;19.17;;;9.32;;
58208;SDS011;44006;52.028;4.696;2023-12-14T05:12:40;17.10;;;8.82;;
58208;SDS011;44006;52.028;4.696;2023-12-14T05:15:05;16.35;;;8.73;;
58208;SDS011;44006;52.028;4.696;2023-12-14T05:17:30;18.15;;;8.75;;
58208;SDS011;44006;52.028;4.696;2023-12-14T05:19:55;15.98;;;9.13;;
58208;SDS011;44006;52.028;4.696;2023-12-14T05:22:21;14.88;;;8.32;;
58208;SDS011;44006;52.028;4.696;2023-12-14T05:24:46;17.17;;;8.57;;
58208;SDS011;44006;52.028;4.696;2023-12-14T05:27:11;15.63;;;8.77;;
58208;SDS011;44006;52.028;4.696;2023-12-14T05:29:37;16.47;;;8.53;;
58208;SDS011;44006;52.028;4.696;2023-12-14T05:32:02;18.53;;;9.07;;
58208;SDS011;44006;52.028;4.696;2023-12-14T05:34:27;13.98;;;8.32;;
58208;SDS011;44006;52.028;4.696;2023-12-14T05:36:52;18.92;;;9.32;;
58208;SDS011;44006;52.028;4.696;2023-12-14T05:39:18;15.10;;;9.35;;
58208;SDS011;44006;52.028;4.696;2023-12-14T05:41:43;12.75;;;8.48;;
58208;SDS011;44006;52.028;4.696;2023-12-14T05:44:08;17.10;;;9.27;;
58208;SDS011;44006;52.028;4.696;2023-12-14T05:46:33;17.10;;;9.15;;
58208;SDS011;44006;52.028;4.696;2023-12-14T05:48:58;14.50;;;8.60;;
58208;SDS011;44006;52.028;4.696;2023-12-14T05:51:30;14.03;;;8.70;;
58208;SDS011;44006;52.028;4.696;2023-12-14T05:53:56;14.73;;;8.32;;
58208;SDS011;44006;52.028;4.696;2023-12-14T05:56:21;15.18;;;8.30;;
58208;SDS011;44006;52.028;4.696;2023-12-14T05:58:47;13.63;;;8.45;;
58208;SDS011;44006;52.028;4.696;2023-12-14T06:01:12;13.85;;;9.13;;
58208;SDS011;44006;52.028;4.696;2023-12-14T06:03:38;15.00;;;8.48;;
58208;SDS011;44006;52.028;4.696;2023-12-14T06:06:03;16.58;;;9.13;;
58208;SDS011;44006;52.028;4.696;2023-12-14T06:08:28;18.13;;;10.10;;
58208;SDS011;44006;52.028;4.696;2023-12-14T06:10:53;14.87;;;9.67;;
58208;SDS011;44006;52.028;4.696;2023-12-14T06:13:19;17.77;;;10.57;;
58208;SDS011;44006;52.028;4.696;2023-12-14T06:15:44;16.33;;;9.73;;
58208;SDS011;44006;52.028;4.696;2023-12-14T06:18:09;15.18;;;9.15;;
58208;SDS011;44006;52.028;4.696;2023-12-14T06:20:34;17.02;;;10.15;;
58208;SDS011;44006;52.028;4.696;2023-12-14T06:22:59;15.97;;;9.80;;
58208;SDS011;44006;52.028;4.696;2023-12-14T06:25:25;18.60;;;10.15;;
58208;SDS011;44006;52.028;4.696;2023-12-14T06:27:50;15.80;;;9.87;;
58208;SDS011;44006;52.028;4.696;2023-12-14T06:30:15;16.83;;;9.70;;
58208;SDS011;44006;52.028;4.696;2023-12-14T06:32:40;17.27;;;10.70;;
58208;SDS011;44006;52.028;4.696;2023-12-14T06:35:06;17.60;;;11.27;;
58208;SDS011;44006;52.028;4.696;2023-12-14T06:37:31;17.23;;;10.65;;
58208;SDS011;44006;52.028;4.696;2023-12-14T06:39:57;19.42;;;11.40;;
58208;SDS011;44006;52.028;4.696;2023-12-14T06:42:22;18.67;;;10.73;;
58208;SDS011;44006;52.028;4.696;2023-12-14T06:44:47;18.07;;;11.40;;
58208;SDS011;44006;52.028;4.696;2023-12-14T06:47:12;13.47;;;10.50;;
58208;SDS011;44006;52.028;4.696;2023-12-14T06:49:38;20.10;;;11.52;;
58208;SDS011;44006;52.028;4.696;2023-12-14T06:52:05;22.15;;;11.45;;
58208;SDS011;44006;52.028;4.696;2023-12-14T06:54:31;17.08;;;11.00;;
58208;SDS011;44006;52.028;4.696;2023-12-14T06:56:56;20.47;;;11.43;;
58208;SDS011;44006;52.028;4.696;2023-12-14T06:59:21;17.77;;;11.07;;
58208;SDS011;44006;52.028;4.696;2023-12-14T07:01:46;17.85;;;12.05;;
58208;SDS011;44006;52.028;4.696;2023-12-14T07:04:11;21.75;;;12.52;;
58208;SDS011;44006;52.028;4.696;2023-12-14T07:06:37;22.17;;;12.27;;
58208;SDS011;44006;52.028;4.696;2023-12-14T07:09:02;18.77;;;12.25;;
58208;SDS011;44006;52.028;4.696;2023-12-14T07:11:27;21.42;;;12.93;;
58208;SDS011;44006;52.028;4.696;2023-12-14T07:13:52;24.45;;;13.50;;
58208;SDS011;44006;52.028;4.696;2023-12-14T07:16:18;18.13;;;12.00;;
58208;SDS011;44006;52.028;4.696;2023-12-14T07:18:43;20.58;;;12.50;;
58208;SDS011;44006;52.028;4.696;2023-12-14T07:21:09;20.13;;;12.45;;
58208;SDS011;44006;52.028;4.696;2023-12-14T07:23:35;21.77;;;13.05;;
58208;SDS011;44006;52.028;4.696;2023-12-14T07:26:00;20.30;;;12.63;;
58208;SDS011;44006;52.028;4.696;2023-12-14T07:28:26;19.10;;;11.98;;
58208;SDS011;44006;52.028;4.696;2023-12-14T07:30:51;17.50;;;11.77;;
58208;SDS011;44006;52.028;4.696;2023-12-14T07:33:16;20.70;;;12.38;;
58208;SDS011;44006;52.028;4.696;2023-12-14T07:35:42;18.40;;;12.05;;
58208;SDS011;44006;52.028;4.696;2023-12-14T07:38:07;19.73;;;11.85;;
58208;SDS011;44006;52.028;4.696;2023-12-14T07:40:32;20.00;;;11.93;;
58208;SDS011;44006;52.028;4.696;2023-12-14T07:43:18;22.00;;;12.82;;
58208;SDS011;44006;52.028;4.696;2023-12-14T07:45:43;21.80;;;12.45;;
58208;SDS011;44006;52.028;4.696;2023-12-14T07:48:08;24.92;;;13.35;;
58208;SDS011;44006;52.028;4.696;2023-12-14T07:50:34;22.63;;;14.32;;
58208;SDS011;44006;52.028;4.696;2023-12-14T07:52:59;20.55;;;13.25;;
58208;SDS011;44006;52.028;4.696;2023-12-14T07:55:24;20.88;;;13.43;;
58208;SDS011;44006;52.028;4.696;2023-12-14T07:57:49;18.37;;;13.23;;
58208;SDS011;44006;52.028;4.696;2023-12-14T08:00:15;21.38;;;13.00;;
58208;SDS011;44006;52.028;4.696;2023-12-14T08:02:41;21.45;;;13.43;;
58208;SDS011;44006;52.028;4.696;2023-12-14T08:05:07;23.60;;;14.10;;
58208;SDS011;44006;52.028;4.696;2023-12-14T08:07:32;21.25;;;13.35;;
58208;SDS011;44006;52.028;4.696;2023-12-14T08:09:57;20.90;;;14.25;;
58208;SDS011;44006;52.028;4.696;2023-12-14T08:12:23;23.33;;;13.43;;
58208;SDS011;44006;52.028;4.696;2023-12-14T08:14:49;21.75;;;13.57;;
58208;SDS011;44006;52.028;4.696;2023-12-14T08:17:14;23.83;;;13.77;;
58208;SDS011;44006;52.028;4.696;2023-12-14T08:19:39;22.00;;;13.18;;
58208;SDS011;44006;52.028;4.696;2023-12-14T08:22:04;20.40;;;13.27;;
58208;SDS011;44006;52.028;4.696;2023-12-14T08:24:30;20.48;;;13.82;;
58208;SDS011;44006;52.028;4.696;2023-12-14T08:26:55;22.67;;;13.30;;
58208;SDS011;44006;52.028;4.696;2023-12-14T08:29:20;22.67;;;12.55;;
58208;SDS011;44006;52.028;4.696;2023-12-14T08:31:45;22.27;;;13.03;;
58208;SDS011;44006;52.028;4.696;2023-12-14T08:34:11;20.80;;;12.97;;
58208;SDS011;44006;52.028;4.696;2023-12-14T08:36:36;22.58;;;14.00;;
58208;SDS011;44006;52.028;4.696;2023-12-14T08:39:01;21.73;;;13.33;;
58208;SDS011;44006;52.028;4.696;2023-12-14T08:41:26;23.80;;;13.30;;
58208;SDS011;44006;52.028;4.696;2023-12-14T08:43:51;22.00;;;14.00;;
58208;SDS011;44006;52.028;4.696;2023-12-14T08:46:17;22.90;;;14.27;;
58208;SDS011;44006;52.028;4.696;2023-12-14T08:48:42;24.70;;;14.45;;
58208;SDS011;44006;52.028;4.696;2023-12-14T08:51:07;19.87;;;13.50;;
58208;SDS011;44006;52.028;4.696;2023-12-14T08:53:32;26.37;;;14.17;;
58208;SDS011;44006;52.028;4.696;2023-12-14T08:55:58;24.77;;;13.90;;
58208;SDS011;44006;52.028;4.696;2023-12-14T08:58:23;24.20;;;14.88;;
58208;SDS011;44006;52.028;4.696;2023-12-14T09:00:48;26.50;;;14.85;;
58208;SDS011;44006;52.028;4.696;2023-12-14T09:03:20;24.98;;;15.18;;
58208;SDS011;44006;52.028;4.696;2023-12-14T09:05:46;24.48;;;14.52;;
58208;SDS011;44006;52.028;4.696;2023-12-14T09:08:11;24.23;;;14.68;;
58208;SDS011;44006;52.028;4.696;2023-12-14T09:10:36;22.58;;;14.57;;
58208;SDS011;44006;52.028;4.696;2023-12-14T09:13:02;25.55;;;14.15;;
58208;SDS011;44006;52.028;4.696;2023-12-14T09:15:29;21.88;;;14.38;;
58208;SDS011;44006;52.028;4.696;2023-12-14T09:17:54;25.33;;;14.93;;
58208;SDS011;44006;52.028;4.696;2023-12-14T09:20:19;24.63;;;15.02;;
58208;SDS011;44006;52.028;4.696;2023-12-14T09:22:45;21.63;;;13.63;;
58208;SDS011;44006;52.028;4.696;2023-12-14T09:25:10;20.27;;;13.20;;
58208;SDS011;44006;52.028;4.696;2023-12-14T09:27:35;20.55;;;13.07;;
58208;SDS011;44006;52.028;4.696;2023-12-14T09:30:01;19.83;;;13.32;;
58208;SDS011;44006;52.028;4.696;2023-12-14T09:32:29;21.52;;;12.52;;
58208;SDS011;44006;52.028;4.696;2023-12-14T09:34:55;21.17;;;13.73;;
58208;SDS011;44006;52.028;4.696;2023-12-14T09:37:21;19.63;;;12.15;;
58208;SDS011;44006;52.028;4.696;2023-12-14T09:39:46;20.83;;;12.18;;
58208;SDS011;44006;52.028;4.696;2023-12-14T09:42:12;21.00;;;12.60;;
58208;SDS011;44006;52.028;4.696;2023-12-14T09:44:39;21.15;;;11.52;;
58208;SDS011;44006;52.028;4.696;2023-12-14T09:47:05;18.48;;;11.85;;
58208;SDS011;44006;52.028;4.696;2023-12-14T09:49:30;18.85;;;12.05;;
58208;SDS011;44006;52.028;4.696;2023-12-14T09:51:56;20.42;;;12.25;;
58208;SDS011;44006;52.028;4.696;2023-12-14T09:54:22;18.17;;;12.07;;
58208;SDS011;44006;52.028;4.696;2023-12-14T09:56:47;18.65;;;11.57;;
58208;SDS011;44006;52.028;4.696;2023-12-14T09:59:12;17.92;;;12.18;;
58208;SDS011;44006;52.028;4.696;2023-12-14T10:01:38;19.98;;;12.50;;
58208;SDS011;44006;52.028;4.696;2023-12-14T10:04:10;20.23;;;11.93;;
58208;SDS011;44006;52.028;4.696;2023-12-14T10:06:37;21.70;;;12.38;;
58208;SDS011;44006;52.028;4.696;2023-12-14T10:09:03;20.85;;;12.57;;
58208;SDS011;44006;52.028;4.696;2023-12-14T10:11:29;19.05;;;11.75;;
58208;SDS011;44006;52.028;4.696;2023-12-14T10:13:55;19.98;;;12.55;;
58208;SDS011;44006;52.028;4.696;2023-12-14T10:16:27;21.52;;;12.73;;
58208;SDS011;44006;52.028;4.696;2023-12-14T10:18:53;20.05;;;12.90;;
58208;SDS011;44006;52.028;4.696;2023-12-14T10:21:18;19.23;;;11.82;;
58208;SDS011;44006;52.028;4.696;2023-12-14T10:23:44;23.23;;;12.05;;
58208;SDS011;44006;52.028;4.696;2023-12-14T10:26:11;20.52;;;12.02;;
58208;SDS011;44006;52.028;4.696;2023-12-14T10:28:37;23.70;;;12.73;;
58208;SDS011;44006;52.028;4.696;2023-12-14T10:31:04;20.48;;;12.55;;
58208;SDS011;44006;52.028;4.696;2023-12-14T10:33:30;21.65;;;12.10;;
58208;SDS011;44006;52.028;4.696;2023-12-14T10:35:55;18.57;;;11.77;;
58208;SDS011;44006;52.028;4.696;2023-12-14T10:38:20;20.10;;;11.00;;
58208;SDS011;44006;52.028;4.696;2023-12-14T10:40:46;18.63;;;10.82;;
58208;SDS011;44006;52.028;4.696;2023-12-14T10:43:13;17.40;;;11.43;;
58208;SDS011;44006;52.028;4.696;2023-12-14T10:45:38;19.80;;;12.23;;
58208;SDS011;44006;52.028;4.696;2023-12-14T10:48:04;19.50;;;11.75;;
58208;SDS011;44006;52.028;4.696;2023-12-14T10:50:29;20.75;;;12.50;;
58208;SDS011;44006;52.028;4.696;2023-12-14T10:52:55;24.00;;;12.38;;
58208;SDS011;44006;52.028;4.696;2023-12-14T10:55:22;19.65;;;11.35;;
58208;SDS011;44006;52.028;4.696;2023-12-14T10:57:51;21.08;;;11.45;;
58208;SDS011;44006;52.028;4.696;2023-12-14T11:00:17;18.48;;;11.18;;
58208;SDS011;44006;52.028;4.696;2023-12-14T11:02:45;16.92;;;10.73;;
58208;SDS011;44006;52.028;4.696;2023-12-14T11:05:14;19.08;;;11.38;;
58208;SDS011;44006;52.028;4.696;2023-12-14T11:07:44;20.65;;;11.75;;
58208;SDS011;44006;52.028;4.696;2023-12-14T11:10:11;20.17;;;11.65;;
58208;SDS011;44006;52.028;4.696;2023-12-14T11:12:36;17.10;;;11.48;;
58208;SDS011;44006;52.028;4.696;2023-12-14T11:15:02;20.73;;;12.23;;
58208;SDS011;44006;52.028;4.696;2023-12-14T11:17:29;21.55;;;11.38;;
58208;SDS011;44006;52.028;4.696;2023-12-14T11:19:54;21.77;;;12.73;;
58208;SDS011;44006;52.028;4.696;2023-12-14T11:22:23;27.73;;;12.27;;
58208;SDS011;44006;52.028;4.696;2023-12-14T11:24:54;22.92;;;12.20;;
58208;SDS011;44006;52.028;4.696;2023-12-14T11:27:25;20.95;;;11.20;;
58208;SDS011;44006;52.028;4.696;2023-12-14T11:32:16;20.85;;;11.15;;
58208;SDS011;44006;52.028;4.696;2023-12-14T11:34:42;22.08;;;11.93;;
58208;SDS011;44006;52.028;4.696;2023-12-14T11:37:07;19.40;;;12.53;;
58208;SDS011;44006;52.028;4.696;2023-12-14T11:39:33;20.73;;;11.73;;
58208;SDS011;44006;52.028;4.696;2023-12-14T11:42:02;21.63;;;12.05;;
58208;SDS011;44006;52.028;4.696;2023-12-14T11:44:28;23.77;;;14.55;;
58208;SDS011;44006;52.028;4.696;2023-12-14T11:46:55;22.92;;;12.55;;
58208;SDS011;44006;52.028;4.696;2023-12-14T11:49:20;24.43;;;14.00;;
58208;SDS011;44006;52.028;4.696;2023-12-14T11:51:46;25.80;;;14.17;;
58208;SDS011;44006;52.028;4.696;2023-12-14T11:54:11;24.52;;;13.90;;
58208;SDS011;44006;52.028;4.696;2023-12-14T11:56:36;24.83;;;13.07;;
58208;SDS011;44006;52.028;4.696;2023-12-14T11:59:01;24.88;;;13.73;;
58208;SDS011;44006;52.028;4.696;2023-12-14T12:01:27;22.05;;;14.52;;
58208;SDS011;44006;52.028;4.696;2023-12-14T12:03:53;22.52;;;13.23;;
58208;SDS011;44006;52.028;4.696;2023-12-14T12:06:21;25.98;;;13.98;;
58208;SDS011;44006;52.028;4.696;2023-12-14T12:08:51;28.38;;;14.23;;
58208;SDS011;44006;52.028;4.696;2023-12-14T12:11:23;24.83;;;14.25;;
58208;SDS011;44006;52.028;4.696;2023-12-14T12:13:52;27.60;;;14.13;;
58208;SDS011;44006;52.028;4.696;2023-12-14T12:16:18;20.23;;;12.55;;
58208;SDS011;44006;52.028;4.696;2023-12-14T12:18:43;25.05;;;13.40;;
58208;SDS011;44006;52.028;4.696;2023-12-14T12:21:10;23.70;;;13.23;;
58208;SDS011;44006;52.028;4.696;2023-12-14T12:23:36;24.83;;;13.77;;
58208;SDS011;44006;52.028;4.696;2023-12-14T12:26:01;23.13;;;12.95;;
58208;SDS011;44006;52.028;4.696;2023-12-14T12:28:26;26.95;;;15.48;;
58208;SDS011;44006;52.028;4.696;2023-12-14T12:30:52;30.40;;;16.27;;
58208;SDS011;44006;52.028;4.696;2023-12-14T12:33:17;23.05;;;14.00;;
58208;SDS011;44006;52.028;4.696;2023-12-14T12:35:43;24.25;;;14.18;;
58208;SDS011;44006;52.028;4.696;2023-12-14T12:38:08;27.42;;;13.95;;
58208;SDS011;44006;52.028;4.696;2023-12-14T12:40:33;25.33;;;14.40;;
58208;SDS011;44006;52.028;4.696;2023-12-14T12:42:58;27.03;;;14.97;;
58208;SDS011;44006;52.028;4.696;2023-12-14T12:45:24;26.20;;;15.63;;
58208;SDS011;44006;52.028;4.696;2023-12-14T12:47:52;32.75;;;16.25;;
58208;SDS011;44006;52.028;4.696;2023-12-14T12:50:18;26.33;;;15.90;;
58208;SDS011;44006;52.028;4.696;2023-12-14T12:52:43;26.45;;;15.60;;
58208;SDS011;44006;52.028;4.696;2023-12-14T12:55:10;27.48;;;16.80;;
58208;SDS011;44006;52.028;4.696;2023-12-14T12:57:37;27.42;;;15.07;;
58208;SDS011;44006;52.028;4.696;2023-12-14T13:00:02;32.53;;;16.88;;
58208;SDS011;44006;52.028;4.696;2023-12-14T13:02:29;28.50;;;16.45;;
58208;SDS011;44006;52.028;4.696;2023-12-14T13:04:54;30.03;;;15.83;;
58208;SDS011;44006;52.028;4.696;2023-12-14T13:07:19;29.93;;;16.77;;
58208;SDS011;44006;52.028;4.696;2023-12-14T13:09:44;30.27;;;15.97;;
58208;SDS011;44006;52.028;4.696;2023-12-14T13:12:10;33.42;;;17.30;;
58208;SDS011;44006;52.028;4.696;2023-12-14T13:14:35;31.95;;;16.85;;
58208;SDS011;44006;52.028;4.696;2023-12-14T13:17:01;30.08;;;16.88;;
58208;SDS011;44006;52.028;4.696;2023-12-14T13:19:26;28.42;;;17.13;;
58208;SDS011;44006;52.028;4.696;2023-12-14T13:21:52;33.15;;;17.45;;
58208;SDS011;44006;52.028;4.696;2023-12-14T13:24:17;31.25;;;16.17;;
58208;SDS011;44006;52.028;4.696;2023-12-14T13:26:42;28.80;;;16.52;;
58208;SDS011;44006;52.028;4.696;2023-12-14T13:29:08;28.77;;;16.63;;
58208;SDS011;44006;52.028;4.696;2023-12-14T13:31:33;32.17;;;16.50;;
58208;SDS011;44006;52.028;4.696;2023-12-14T13:33:58;28.77;;;16.85;;
58208;SDS011;44006;52.028;4.696;2023-12-14T13:36:23;30.45;;;16.98;;
58208;SDS011;44006;52.028;4.696;2023-12-14T13:38:49;35.88;;;17.38;;
58208;SDS011;44006;52.028;4.696;2023-12-14T13:41:14;32.03;;;17.13;;
58208;SDS011;44006;52.028;4.696;2023-12-14T13:43:40;29.57;;;16.63;;
58208;SDS011;44006;52.028;4.696;2023-12-14T13:46:06;31.02;;;17.42;;
58208;SDS011;44006;52.028;4.696;2023-12-14T13:48:31;30.65;;;16.70;;
58208;SDS011;44006;52.028;4.696;2023-12-14T13:50:57;32.77;;;17.40;;
58208;SDS011;44006;52.028;4.696;2023-12-14T13:53:23;28.45;;;16.70;;
58208;SDS011;44006;52.028;4.696;2023-12-14T13:55:48;31.55;;;17.25;;
58208;SDS011;44006;52.028;4.696;2023-12-14T13:58:14;31.30;;;17.33;;
58208;SDS011;44006;52.028;4.696;2023-12-14T14:00:41;33.47;;;16.40;;
58208;SDS011;44006;52.028;4.696;2023-12-14T14:03:06;28.88;;;16.38;;
58208;SDS011;44006;52.028;4.696;2023-12-14T14:05:32;31.98;;;17.85;;
58208;SDS011;44006;52.028;4.696;2023-12-14T14:07:57;32.10;;;18.05;;
58208;SDS011;44006;52.028;4.696;2023-12-14T14:10:22;39.25;;;17.83;;
58208;SDS011;44006;52.028;4.696;2023-12-14T14:12:48;32.67;;;16.55;;
58208;SDS011;44006;52.028;4.696;2023-12-14T14:15:13;29.20;;;16.55;;
58208;SDS011;44006;52.028;4.696;2023-12-14T14:17:38;33.78;;;17.25;;